createdAt,value
2018-08-13T15:20:27.299Z,30.30
2018-08-13T15:22:56.856Z,26.20
2018-08-13T15:25:28.074Z,26.40
2018-08-13T15:27:59.520Z,26.70
2018-08-13T15:33:00.741Z,27.20
2018-08-13T15:35:34.681Z,27.40
2018-08-13T15:38:29.612Z,27.40
2018-08-13T15:43:45.575Z,27.40
2018-08-13T15:46:16.342Z,27.20
2018-08-13T15:51:20.272Z,26.90
2018-08-13T15:53:51.127Z,27.10
2018-08-13T15:56:27.758Z,27.30
2018-08-13T15:58:56.555Z,27.40
2018-08-13T16:01:26.605Z,27.40
2018-08-13T16:03:56.791Z,27.50
2018-08-13T16:08:54.707Z,27.40
2018-08-13T16:11:24.796Z,27.40
2018-08-13T16:13:56.446Z,27.30
2018-08-13T16:18:59.000Z,27.10
2018-08-13T16:21:29.291Z,27.00
2018-08-13T16:24:07.010Z,26.90
2018-08-13T16:26:37.698Z,26.80
2018-08-13T16:29:09.886Z,26.80
2018-08-13T16:31:39.164Z,26.60
2018-08-13T16:36:36.139Z,26.70
2018-08-13T16:39:14.843Z,26.70
2018-08-13T16:41:43.468Z,26.70
2018-08-13T16:44:12.043Z,26.60
2018-08-13T16:46:40.691Z,26.60
2018-08-13T16:49:09.219Z,26.60
2018-08-13T16:51:37.743Z,26.60
2018-08-13T16:54:06.304Z,26.70
2018-08-13T16:56:34.995Z,26.60
2018-08-13T16:59:03.736Z,26.60
2018-08-13T17:01:32.673Z,26.60
2018-08-13T17:04:01.433Z,26.60
2018-08-13T17:06:30.046Z,26.50
2018-08-13T17:09:02.301Z,26.40
2018-08-13T17:11:35.539Z,26.40
2018-08-13T17:16:33.788Z,26.40
2018-08-13T17:19:02.521Z,26.30
2018-08-13T17:21:31.204Z,26.30
2018-08-13T17:26:51.529Z,26.50
2018-08-13T17:29:20.080Z,26.60
2018-08-13T17:31:48.604Z,26.60
2018-08-13T17:34:17.206Z,26.60
2018-08-13T17:36:47.755Z,26.70
2018-08-13T17:39:16.970Z,26.70
2018-08-13T17:41:45.735Z,26.70
2018-08-13T17:44:17.424Z,26.70
2018-08-13T17:49:14.496Z,26.60
2018-08-13T17:51:44.115Z,26.60
2018-08-13T17:54:12.697Z,26.60
2018-08-13T17:56:41.394Z,26.60
2018-08-13T17:59:09.939Z,26.70
2018-08-13T18:01:38.531Z,26.70
2018-08-13T18:04:07.025Z,26.70
2018-08-13T18:06:35.637Z,26.70
2018-08-13T18:09:06.328Z,26.70
2018-08-13T18:11:35.327Z,26.60
2018-08-13T18:16:32.784Z,26.50
2018-08-13T18:19:01.463Z,26.40
2018-08-13T18:21:29.948Z,26.30
2018-08-13T18:23:58.495Z,26.20
2018-08-13T18:26:27.036Z,26.10
2018-08-13T18:31:23.702Z,26.00
2018-08-13T18:33:52.270Z,26.00
2018-08-13T18:36:20.849Z,26.00
2018-08-13T18:38:51.013Z,25.90
2018-08-13T18:41:19.743Z,25.80
2018-08-13T18:43:48.635Z,25.70
2018-08-13T18:46:17.340Z,25.60
2018-08-13T18:48:46.037Z,25.50
2018-08-13T18:51:14.756Z,25.40
2018-08-13T18:53:43.519Z,25.40
2018-08-13T18:56:12.147Z,25.30
2018-08-13T18:58:41.648Z,25.30
2018-08-13T19:01:13.989Z,25.10
2018-08-13T19:03:42.847Z,25.00
2018-08-13T19:06:11.367Z,25.10
2018-08-13T19:08:40.246Z,25.10
2018-08-13T19:11:15.845Z,25.10
2018-08-13T19:13:45.745Z,25.20
2018-08-13T19:16:14.383Z,25.20
2018-08-13T19:18:42.979Z,25.00
2018-08-13T19:21:11.802Z,25.00
2018-08-13T19:23:40.339Z,25.00
2018-08-13T19:26:08.897Z,25.00
2018-08-13T19:31:05.723Z,25.00
2018-08-13T19:33:34.279Z,24.90
2018-08-13T19:36:02.822Z,24.90
2018-08-13T19:38:31.415Z,24.80
2018-08-13T19:40:59.897Z,24.80
2018-08-13T19:45:56.748Z,24.70
2018-08-13T19:48:25.252Z,24.70
2018-08-13T19:50:53.776Z,24.70
2018-08-13T19:53:22.329Z,24.70
2018-08-13T19:55:53.243Z,24.60
2018-08-13T19:58:21.837Z,24.60
2018-08-13T20:00:54.597Z,24.50
2018-08-13T20:03:23.147Z,24.50
2018-08-13T20:05:51.786Z,24.50
2018-08-13T20:08:20.454Z,24.40
2018-08-13T20:10:49.179Z,24.40
2018-08-13T20:13:17.711Z,24.40
2018-08-13T20:15:46.270Z,24.40
2018-08-13T20:18:14.865Z,24.30
2018-08-13T20:20:43.438Z,24.30
2018-08-13T20:23:12.183Z,24.30
2018-08-13T20:25:40.848Z,24.30
2018-08-13T20:28:09.748Z,24.20
2018-08-13T20:30:38.477Z,24.20
2018-08-13T20:33:10.547Z,24.20
2018-08-13T20:35:39.600Z,24.20
2018-08-13T20:38:08.766Z,24.20
2018-08-13T20:40:37.737Z,24.20
2018-08-13T20:43:06.588Z,24.20
2018-08-13T20:45:35.159Z,24.10
2018-08-13T20:48:03.752Z,24.10
2018-08-13T20:50:35.255Z,24.10
2018-08-13T20:53:03.914Z,24.10
2018-08-13T20:55:32.655Z,24.00
2018-08-13T20:58:05.846Z,24.00
2018-08-13T21:00:35.194Z,23.90
2018-08-13T21:03:04.466Z,23.90
2018-08-13T21:05:33.345Z,23.80
2018-08-13T21:08:02.629Z,23.90
2018-08-13T21:10:53.177Z,23.90
2018-08-13T21:13:36.548Z,23.90
2018-08-13T21:16:06.881Z,23.80
2018-08-13T21:18:35.532Z,23.70
2018-08-13T21:21:04.074Z,23.70
2018-08-13T21:23:32.737Z,23.70
2018-08-13T21:26:01.379Z,23.70
2018-08-13T21:28:30.580Z,23.70
2018-08-13T21:30:59.103Z,23.80
2018-08-13T21:33:27.718Z,23.80
2018-08-13T21:35:56.248Z,23.80
2018-08-13T21:38:24.798Z,23.80
2018-08-13T21:40:53.468Z,23.70
2018-08-13T21:43:22.025Z,23.70
2018-08-13T21:45:50.559Z,23.60
2018-08-13T22:01:18.880Z,23.50
2018-08-13T22:03:55.611Z,23.50
2018-08-13T22:06:24.761Z,22.30
2018-08-13T22:08:53.372Z,22.50
2018-08-13T22:11:21.999Z,22.70
2018-08-13T22:13:50.607Z,22.80
2018-08-13T22:21:50.160Z,23.20
2018-08-13T22:24:30.963Z,23.30
2018-08-13T22:27:04.444Z,23.40
2018-08-13T22:32:02.039Z,23.40
2018-08-13T22:34:30.787Z,23.40
2018-08-13T22:37:12.532Z,23.40
2018-08-13T22:39:41.181Z,23.40
2018-08-13T22:44:39.243Z,23.30
2018-08-13T22:47:07.946Z,23.30
2018-08-13T22:52:05.011Z,23.30
2018-08-13T22:54:33.522Z,23.30
2018-08-13T22:57:02.452Z,23.30
2018-08-13T22:59:31.266Z,23.30
2018-08-13T23:02:00.067Z,23.30
2018-08-13T23:04:29.854Z,23.40
2018-08-13T23:06:58.789Z,23.40
2018-08-13T23:09:27.418Z,23.50
2018-08-13T23:11:55.970Z,23.50
2018-08-13T23:14:33.454Z,23.50
2018-08-13T23:17:02.175Z,23.50
2018-08-13T23:19:30.695Z,23.50
2018-08-13T23:24:27.396Z,23.60
2018-08-13T23:26:55.942Z,23.50
2018-08-13T23:29:24.514Z,23.50
2018-08-13T23:31:53.090Z,23.50
2018-08-13T23:34:21.658Z,23.50
2018-08-13T23:36:50.175Z,23.40
2018-08-13T23:39:18.762Z,23.50
2018-08-13T23:41:47.320Z,23.50
2018-08-13T23:44:16.851Z,23.50
2018-08-13T23:46:46.131Z,23.50
2018-08-13T23:51:42.921Z,23.50
2018-08-13T23:54:11.497Z,23.50
2018-08-13T23:56:40.016Z,23.40
2018-08-13T23:59:08.527Z,23.40
